Flight Track Log - Related Links

Times and Time Zones

All times are in EDT time to prevent confusion due to time zone crossing. See the DAL268 flight status page for this flight to view local times or setup timezone preferences in your user account.

Time Position Orientation Groundspeed Altitude Reporting Facility
EDT Latitude Longitude Course Direction KTS MPH feet Rate Location/Type
07:28PM 33.6333 -84.3667 64° Northeast 203 234 2,600  Level Atlanta TRACON
07:29PM 33.6333 -84.3000 90° East 259 298 4,100 2,300 Climbing Atlanta TRACON
07:30PM 33.6333 -84.2000 90° East 283 326 7,200 2,321 Climbing Atlanta TRACON
07:31PM 33.7132 -84.0121 101° East  Level FlightAware Approximate
07:32PM 33.6904 -83.8755 101° East  Level FlightAware Approximate
07:32PM 33.6356 -84.0886 89° East 331 381 9,400  Level Atlanta Center
07:33PM 33.6676 -83.7389 101° East  Level FlightAware Approximate
07:33PM 33.6439 -83.9814 85° East 329 379 11,100  Level Atlanta Center
07:34PM 33.6616 -83.6049 64° Northeast  Level FlightAware Approximate
07:34PM 33.6522 -83.8592 85° East 341 392 12,400  Level Atlanta Center
07:35PM 33.6622 -83.7244 85° East 386 444 14,700 2,100 Climbing Atlanta Center
07:36PM 33.6828 -83.5894 80° East 410 472 16,600 1,850 Climbing Atlanta Center
07:37PM 33.7344 -83.4642 64° Northeast 410 472 18,400 1,700 Climbing Atlanta Center
07:38PM 33.7881 -83.3314 64° Northeast 424 488 20,000 1,400 Climbing Atlanta Center
07:39PM 33.8475 -83.1833 64° Northeast 438 504 21,200 1,300 Climbing Atlanta Center
07:40PM 33.9050 -83.0375 65° Northeast 458 527 22,600 1,400 Climbing Atlanta Center
07:41PM 33.9622 -82.8942 64° Northeast 471 542 24,000 1,250 Climbing Atlanta Center
07:42PM 34.0211 -82.7406 65° Northeast 483 556 25,100 1,500 Climbing Atlanta Center
07:43PM 34.0800 -82.5942 64° Northeast 491 565 27,000 1,650 Climbing Atlanta Center
07:44PM 34.1347 -82.4628 63° Northeast 486 559 28,400 1,400 Climbing Atlanta Center
07:45PM 34.1892 -82.3161 66° East 476 548 29,800 1,300 Climbing Atlanta Center
07:46PM 34.2456 -82.1767 64° Northeast 470 541 31,000 950 Climbing Atlanta Center
07:47PM 34.3103 -82.0394 60° Northeast 465 535 31,700 750 Climbing Atlanta Center
07:48PM 34.3769 -81.9069 59° Northeast 465 535 32,500 650 Climbing Atlanta Center
07:49PM 34.4433 -81.7744 59° Northeast 460 529 33,000 250 Climbing Atlanta Center
07:50PM 34.5075 -81.6442 59° Northeast 455 524 33,000  Level Atlanta Center
07:51PM 34.5819 -81.5033 57° Northeast 450 518 33,000  Level Atlanta Center
07:52PM 34.6439 -81.3700 61° Northeast 450 518 33,000  Level Atlanta Center
07:53PM 34.6997 -81.2519 60° Northeast 450 518 33,000  Level Atlanta Center
07:54PM 34.7675 -81.1158 59° Northeast 456 525 33,000  Level Atlanta Center
07:55PM 34.8289 -80.9844 60° Northeast 450 518 33,000  Level Atlanta Center
07:56PM 34.8964 -80.8478 59° Northeast 450 518 33,000  Level Atlanta Center
07:57PM 34.9597 -80.7161 60° Northeast 450 518 33,000  Level Atlanta Center
07:58PM 35.0228 -80.5844 60° Northeast 450 518 33,000  Level Atlanta Center
07:59PM 35.0900 -80.4469 59° Northeast 450 518 33,000  Level Atlanta Center
08:01PM 35.2528 -80.1067 60° Northeast 453 521 33,000  Level Washington Center
08:02PM 35.3206 -79.9706 59° Northeast 453 521 33,000  Level Washington Center
08:03PM 35.3861 -79.8289 60° Northeast 459 528 33,000  Level Washington Center
08:04PM 35.4517 -79.6869 60° Northeast 465 535 33,000  Level Washington Center
08:05PM 35.5189 -79.5475 59° Northeast 470 541 33,000  Level Washington Center
08:06PM 35.5842 -79.4053 61° Northeast 470 541 33,000  Level Washington Center
08:07PM 35.6533 -79.2628 59° Northeast 470 541 33,000  Level Washington Center
08:08PM 35.7078 -79.1194 65° Northeast 470 541 33,000  Level Washington Center
08:09PM 35.7417 -78.9572 76° East 470 541 33,000  Level Washington Center
08:10PM 35.7753 -78.7972 75° East 476 548 33,000  Level Washington Center
08:11PM 35.8067 -78.6294 77° East 489 563 33,000  Level Washington Center
08:12PM 35.8400 -78.4669 76° East 489 563 33,000  Level Washington Center
08:13PM 35.8661 -78.3217 77° East 489 563 33,000  Level Washington Center
08:14PM 35.8969 -78.1561 77° East 489 563 33,000  Level Washington Center
08:15PM 35.9275 -77.9928 77° East 484 557 33,000  Level Washington Center
08:16PM 35.9578 -77.8297 77° East 484 557 33,000  Level Washington Center
08:17PM 35.9961 -77.6717 73° East 484 557 33,000  Level Washington Center
08:18PM 36.0778 -77.5375 53° Northeast 479 551 33,000  Level Washington Center
08:19PM 36.1675 -77.3931 52° Northeast 479 551 33,000  Level Washington Center
08:20PM 36.2489 -77.2583 53° Northeast 479 551 33,000  Level Washington Center
08:21PM 36.3342 -77.1208 52° Northeast 484 557 33,000  Level Washington Center
08:22PM 36.4172 -76.9858 53° Northeast 484 557 33,000  Level Washington Center
08:23PM 36.5164 -76.8764 42° Northeast 479 551 33,000  Level Washington Center
08:24PM 36.6239 -76.7825 35° Northeast 467 537 33,000  Level Washington Center
08:25PM 36.7311 -76.6831 37° Northeast 472 543 33,000  Level Washington Center
08:26PM 36.8258 -76.5933 37° Northeast 477 549 33,000  Level Washington Center
08:27PM 36.9328 -76.4961 36° Northeast 477 549 33,000  Level Washington Center
08:28PM 37.0378 -76.4011 36° Northeast 472 543 33,000  Level Washington Center
08:29PM 37.1428 -76.3058 36° Northeast 467 537 33,000  Level Washington Center
08:30PM 37.2475 -76.2075 37° Northeast 467 537 33,000  Level Washington Center
08:31PM 37.3567 -76.1144 34° Northeast 462 532 33,000  Level Washington Center
08:32PM 37.4633 -76.0156 36° Northeast 462 532 33,000  Level Washington Center
08:33PM 37.5700 -75.9194 36° Northeast 468 539 33,000  Level Washington Center
08:34PM 37.6744 -75.8228 36° Northeast 468 539 33,000  Level Washington Center
08:35PM 37.7811 -75.7258 36° Northeast 468 539 33,000  Level Washington Center
08:36PM 37.8875 -75.6286 36° Northeast 468 539 33,000  Level Washington Center
08:37PM 37.9939 -75.5258 37° Northeast 474 545 33,000  Level Washington Center
08:38PM 38.1042 -75.4361 33° Northeast 474 545 33,000  Level Washington Center
08:39PM 38.2231 -75.3644 25° Northeast 469 540 33,000  Level Washington Center
08:40PM 38.3478 -75.2794 28° Northeast 464 534 33,000  Level Washington Center
08:41PM 38.4664 -75.2019 27° Northeast 464 534 33,000  Level Washington Center
08:42PM 38.5892 -75.1242 26° Northeast 471 542 33,000  Level Washington Center
08:43PM 38.7078 -75.0542 25° Northeast 471 542 33,000 -50 Level Washington Center
08:44PM 38.8261 -74.9761 27° Northeast 471 542 32,900 -400 Descending Washington Center
08:45PM 38.9444 -74.9003 26° Northeast 466 536 32,200 -1,513 Descending Washington Center
08:46PM 39.0589 -74.8244 27° Northeast 466 536 29,900 -2,340 Descending Washington Center
08:48PM 39.2214 -74.6756 35° Northeast 481 554 26,000 -2,296 Descending New York Center
08:49PM 39.3167 -74.5681 41° Northeast 465 535 23,700 -2,262 Descending New York Center
08:50PM 39.4072 -74.4708 40° Northeast 446 513 21,400 -2,205 Descending New York Center
08:51PM 39.4978 -74.3733 40° Northeast 424 488 19,400 -1,729 Descending New York Center
08:52PM 39.5928 -74.2703 40° Northeast 412 474 18,000 -942 Descending New York Center
08:53PM 39.6767 -74.1775 40° Northeast 402 463 17,500 -1,361 Descending New York Center
08:54PM 39.7583 -74.0894 40° Northeast 394 453 15,300 -2,150 Descending New York Center
08:55PM 39.8294 -74.0119 40° Northeast 377 434 13,200 -1,934 Descending New York Center
08:56PM 39.9233 -73.9350 32° Northeast 361 415 11,400 -1,091 Descending New York Center
08:57PM 40.0000 -73.8733 32° Northeast 340 391 11,000 -344 Descending New York Center
08:58PM 40.0658 -73.8194 32° Northeast 300 345 10,700 -814 Descending New York Center
08:59PM 40.1342 -73.7628 32° Northeast 287 330 9,400 -1,558 Descending New York Center
08:59PM 40.1833 -73.7167 36° Northeast 278 320 8,000 -1,556 Descending New York TRACON
09:00PM 40.2500 -73.6667 30° Northeast 271 312 6,600 -1,388 Descending New York TRACON
09:01PM 40.3167 -73.6167 30° Northeast 256 295 5,200 -1,520 Descending New York TRACON
09:02PM 40.3275 -73.6161 North 263 303 4,700 -1,200 Descending New York Center
09:02PM 40.3833 -73.5667 34° Northeast 261 300 4,000 -400 Descending New York TRACON
09:03PM 40.4333 -73.5167 37° Northeast 261 300 4,000 -350 Level New York TRACON
09:04PM 40.5000 -73.5000 11° North 256 295 3,300 -1,000 Descending New York TRACON
09:05PM 40.5667 -73.5167 349° North 245 282 2,000 -650 Descending New York TRACON
09:06PM 40.6333 -73.5500 339° North 223 257 2,000  Level New York TRACON
09:07PM 40.6833 -73.6000 323° Northwest 195 224 2,000  Level New York TRACON

Login

Don't have an account? Register now (free) for customized features, flight alerts, and more!